Terminal Aerodrome Forecast
Issued by NWS

Home | Current Version | Previous Version | Text Only | Print | Product List | Glossary On
Versions: 1 2 3 4 5 6 7 8 9 10 11 12 13 14 15 16 17 18
330
FTUS41 KCAR 250520
TAFPQI
TAF
KPQI 250520Z 2506/2606 22004KT P6SM SCT060
     FM251000 32007KT P6SM BKN060
     FM251200 33011KT P6SM SCT090
     FM252300 32007KT P6SM FEW250=

USA.gov is the U.S. government's official web portal to all federal, state and local government web resources and services.